sensor_id;sensor_type;location;lat;lon;timestamp;P1;durP1;ratioP1;P2;durP2;ratioP2
14358;SDS011;7263;49.418;11.064;2022-10-04T00:01:22;10.20;;;5.90;;
14358;SDS011;7263;49.418;11.064;2022-10-04T00:03:50;7.80;;;5.80;;
14358;SDS011;7263;49.418;11.064;2022-10-04T00:06:27;8.67;;;6.27;;
14358;SDS011;7263;49.418;11.064;2022-10-04T00:08:55;7.37;;;5.43;;
14358;SDS011;7263;49.418;11.064;2022-10-04T00:11:30;7.87;;;5.67;;
14358;SDS011;7263;49.418;11.064;2022-10-04T00:14:00;10.13;;;5.40;;
14358;SDS011;7263;49.418;11.064;2022-10-04T00:16:33;9.07;;;6.03;;
14358;SDS011;7263;49.418;11.064;2022-10-04T00:19:20;11.17;;;6.37;;
14358;SDS011;7263;49.418;11.064;2022-10-04T00:25:13;9.50;;;5.93;;
14358;SDS011;7263;49.418;11.064;2022-10-04T00:30:33;12.20;;;5.57;;
14358;SDS011;7263;49.418;11.064;2022-10-04T00:33:01;8.13;;;5.80;;
14358;SDS011;7263;49.418;11.064;2022-10-04T00:35:45;8.37;;;5.73;;
14358;SDS011;7263;49.418;11.064;2022-10-04T00:38:13;6.10;;;5.50;;
14358;SDS011;7263;49.418;11.064;2022-10-04T00:40:43;7.53;;;5.90;;
14358;SDS011;7263;49.418;11.064;2022-10-04T00:43:12;7.53;;;5.47;;
14358;SDS011;7263;49.418;11.064;2022-10-04T00:45:42;7.60;;;5.30;;
14358;SDS011;7263;49.418;11.064;2022-10-04T00:48:26;6.87;;;4.80;;
14358;SDS011;7263;49.418;11.064;2022-10-04T00:50:55;7.57;;;4.93;;
14358;SDS011;7263;49.418;11.064;2022-10-04T00:53:39;4.90;;;4.50;;
14358;SDS011;7263;49.418;11.064;2022-10-04T00:56:10;6.57;;;4.97;;
14358;SDS011;7263;49.418;11.064;2022-10-04T01:01:31;5.37;;;4.83;;
14358;SDS011;7263;49.418;11.064;2022-10-04T01:04:00;6.30;;;4.57;;
14358;SDS011;7263;49.418;11.064;2022-10-04T01:06:31;11.87;;;5.13;;
14358;SDS011;7263;49.418;11.064;2022-10-04T01:09:00;7.50;;;5.00;;
14358;SDS011;7263;49.418;11.064;2022-10-04T01:11:35;6.83;;;5.10;;
14358;SDS011;7263;49.418;11.064;2022-10-04T01:14:07;7.10;;;5.20;;
14358;SDS011;7263;49.418;11.064;2022-10-04T01:16:38;8.03;;;5.10;;
14358;SDS011;7263;49.418;11.064;2022-10-04T01:19:18;6.50;;;4.90;;
14358;SDS011;7263;49.418;11.064;2022-10-04T01:21:55;6.70;;;5.20;;
14358;SDS011;7263;49.418;11.064;2022-10-04T01:24:25;8.00;;;5.50;;
14358;SDS011;7263;49.418;11.064;2022-10-04T01:26:59;6.33;;;5.57;;
14358;SDS011;7263;49.418;11.064;2022-10-04T01:29:28;5.80;;;5.07;;
14358;SDS011;7263;49.418;11.064;2022-10-04T01:31:57;8.63;;;5.30;;
14358;SDS011;7263;49.418;11.064;2022-10-04T01:34:25;10.03;;;4.90;;
14358;SDS011;7263;49.418;11.064;2022-10-04T01:36:54;10.10;;;5.63;;
14358;SDS011;7263;49.418;11.064;2022-10-04T01:39:22;5.73;;;4.70;;
14358;SDS011;7263;49.418;11.064;2022-10-04T01:41:52;6.60;;;5.07;;
14358;SDS011;7263;49.418;11.064;2022-10-04T01:44:26;7.67;;;5.37;;
14358;SDS011;7263;49.418;11.064;2022-10-04T01:46:57;6.57;;;4.90;;
14358;SDS011;7263;49.418;11.064;2022-10-04T01:49:26;6.40;;;5.03;;
14358;SDS011;7263;49.418;11.064;2022-10-04T01:51:56;8.23;;;5.13;;
14358;SDS011;7263;49.418;11.064;2022-10-04T01:54:32;7.87;;;5.30;;
14358;SDS011;7263;49.418;11.064;2022-10-04T01:57:04;9.10;;;5.43;;
14358;SDS011;7263;49.418;11.064;2022-10-04T01:59:34;7.73;;;5.93;;
14358;SDS011;7263;49.418;11.064;2022-10-04T02:02:07;8.60;;;5.50;;
14358;SDS011;7263;49.418;11.064;2022-10-04T02:04:41;6.17;;;5.47;;
14358;SDS011;7263;49.418;11.064;2022-10-04T02:07:11;8.80;;;5.73;;
14358;SDS011;7263;49.418;11.064;2022-10-04T02:09:42;7.80;;;5.53;;
14358;SDS011;7263;49.418;11.064;2022-10-04T02:12:14;6.50;;;5.30;;
14358;SDS011;7263;49.418;11.064;2022-10-04T02:14:43;5.37;;;4.87;;
14358;SDS011;7263;49.418;11.064;2022-10-04T02:17:16;5.17;;;4.70;;
14358;SDS011;7263;49.418;11.064;2022-10-04T02:19:44;5.63;;;5.07;;
14358;SDS011;7263;49.418;11.064;2022-10-04T02:22:13;5.30;;;4.80;;
14358;SDS011;7263;49.418;11.064;2022-10-04T02:24:41;6.40;;;4.93;;
14358;SDS011;7263;49.418;11.064;2022-10-04T02:27:09;7.53;;;5.20;;
14358;SDS011;7263;49.418;11.064;2022-10-04T02:29:37;6.00;;;5.07;;
14358;SDS011;7263;49.418;11.064;2022-10-04T02:32:05;6.53;;;5.03;;
14358;SDS011;7263;49.418;11.064;2022-10-04T02:34:50;5.87;;;5.00;;
14358;SDS011;7263;49.418;11.064;2022-10-04T02:37:20;5.87;;;4.87;;
14358;SDS011;7263;49.418;11.064;2022-10-04T02:39:48;7.57;;;4.83;;
14358;SDS011;7263;49.418;11.064;2022-10-04T02:42:20;5.20;;;4.70;;
14358;SDS011;7263;49.418;11.064;2022-10-04T02:44:57;5.30;;;4.77;;
14358;SDS011;7263;49.418;11.064;2022-10-04T02:47:26;5.93;;;4.93;;
14358;SDS011;7263;49.418;11.064;2022-10-04T02:49:59;7.17;;;4.83;;
14358;SDS011;7263;49.418;11.064;2022-10-04T02:52:28;5.17;;;4.67;;
14358;SDS011;7263;49.418;11.064;2022-10-04T02:54:56;5.10;;;4.60;;
14358;SDS011;7263;49.418;11.064;2022-10-04T02:57:26;6.10;;;5.30;;
14358;SDS011;7263;49.418;11.064;2022-10-04T03:00:06;5.20;;;4.63;;
14358;SDS011;7263;49.418;11.064;2022-10-04T03:02:35;6.17;;;4.90;;
14358;SDS011;7263;49.418;11.064;2022-10-04T03:05:03;5.23;;;4.73;;
14358;SDS011;7263;49.418;11.064;2022-10-04T03:07:33;4.70;;;4.27;;
14358;SDS011;7263;49.418;11.064;2022-10-04T03:10:01;4.87;;;4.47;;
14358;SDS011;7263;49.418;11.064;2022-10-04T03:12:33;5.00;;;4.53;;
14358;SDS011;7263;49.418;11.064;2022-10-04T03:15:04;6.13;;;4.40;;
14358;SDS011;7263;49.418;11.064;2022-10-04T03:17:32;5.07;;;4.30;;
14358;SDS011;7263;49.418;11.064;2022-10-04T03:20:00;7.83;;;7.07;;
14358;SDS011;7263;49.418;11.064;2022-10-04T03:22:27;9.20;;;7.20;;
14358;SDS011;7263;49.418;11.064;2022-10-04T03:24:54;8.23;;;5.73;;
14358;SDS011;7263;49.418;11.064;2022-10-04T03:27:24;16.70;;;14.77;;
14358;SDS011;7263;49.418;11.064;2022-10-04T03:29:54;11.77;;;9.60;;
14358;SDS011;7263;49.418;11.064;2022-10-04T03:32:24;13.63;;;8.70;;
14358;SDS011;7263;49.418;11.064;2022-10-04T03:34:55;12.90;;;9.33;;
14358;SDS011;7263;49.418;11.064;2022-10-04T03:37:23;8.20;;;6.17;;
14358;SDS011;7263;49.418;11.064;2022-10-04T03:39:51;7.33;;;5.83;;
14358;SDS011;7263;49.418;11.064;2022-10-04T03:42:21;11.90;;;10.30;;
14358;SDS011;7263;49.418;11.064;2022-10-04T03:44:50;10.17;;;7.50;;
14358;SDS011;7263;49.418;11.064;2022-10-04T03:47:20;12.57;;;10.33;;
14358;SDS011;7263;49.418;11.064;2022-10-04T03:49:50;12.43;;;7.67;;
14358;SDS011;7263;49.418;11.064;2022-10-04T03:52:20;6.90;;;5.77;;
14358;SDS011;7263;49.418;11.064;2022-10-04T03:54:50;6.97;;;5.67;;
14358;SDS011;7263;49.418;11.064;2022-10-04T03:57:18;6.20;;;5.60;;
14358;SDS011;7263;49.418;11.064;2022-10-04T03:59:46;5.60;;;5.03;;
14358;SDS011;7263;49.418;11.064;2022-10-04T04:02:14;7.50;;;4.80;;
14358;SDS011;7263;49.418;11.064;2022-10-04T04:04:49;5.17;;;4.50;;
14358;SDS011;7263;49.418;11.064;2022-10-04T04:07:27;5.73;;;4.53;;
14358;SDS011;7263;49.418;11.064;2022-10-04T04:10:00;5.97;;;4.70;;
14358;SDS011;7263;49.418;11.064;2022-10-04T04:12:32;5.57;;;5.07;;
14358;SDS011;7263;49.418;11.064;2022-10-04T04:15:05;6.20;;;4.67;;
14358;SDS011;7263;49.418;11.064;2022-10-04T04:17:36;5.93;;;4.70;;
14358;SDS011;7263;49.418;11.064;2022-10-04T04:20:14;7.43;;;5.07;;
14358;SDS011;7263;49.418;11.064;2022-10-04T04:22:47;5.63;;;5.13;;
14358;SDS011;7263;49.418;11.064;2022-10-04T04:25:22;5.67;;;5.17;;
14358;SDS011;7263;49.418;11.064;2022-10-04T04:27:51;6.30;;;5.33;;
14358;SDS011;7263;49.418;11.064;2022-10-04T04:30:25;5.13;;;4.63;;
14358;SDS011;7263;49.418;11.064;2022-10-04T04:32:52;5.07;;;4.67;;
14358;SDS011;7263;49.418;11.064;2022-10-04T04:35:24;4.80;;;4.27;;
14358;SDS011;7263;49.418;11.064;2022-10-04T04:38:12;4.93;;;4.43;;
14358;SDS011;7263;49.418;11.064;2022-10-04T04:40:48;5.30;;;4.80;;
14358;SDS011;7263;49.418;11.064;2022-10-04T04:43:19;6.70;;;4.83;;
14358;SDS011;7263;49.418;11.064;2022-10-04T04:45:52;5.57;;;4.47;;
14358;SDS011;7263;49.418;11.064;2022-10-04T04:48:22;6.10;;;5.50;;
14358;SDS011;7263;49.418;11.064;2022-10-04T04:50:52;6.07;;;5.10;;
14358;SDS011;7263;49.418;11.064;2022-10-04T04:53:22;5.47;;;5.00;;
14358;SDS011;7263;49.418;11.064;2022-10-04T04:55:53;5.27;;;4.77;;
14358;SDS011;7263;49.418;11.064;2022-10-04T04:58:22;9.40;;;5.27;;
14358;SDS011;7263;49.418;11.064;2022-10-04T05:00:53;8.27;;;5.20;;
14358;SDS011;7263;49.418;11.064;2022-10-04T05:03:22;5.03;;;4.50;;
14358;SDS011;7263;49.418;11.064;2022-10-04T05:05:51;5.50;;;4.90;;
14358;SDS011;7263;49.418;11.064;2022-10-04T05:08:21;4.60;;;4.20;;
14358;SDS011;7263;49.418;11.064;2022-10-04T05:10:54;4.70;;;4.30;;
14358;SDS011;7263;49.418;11.064;2022-10-04T05:13:30;4.80;;;4.33;;
14358;SDS011;7263;49.418;11.064;2022-10-04T05:16:03;5.00;;;4.10;;
14358;SDS011;7263;49.418;11.064;2022-10-04T05:18:31;5.57;;;4.53;;
14358;SDS011;7263;49.418;11.064;2022-10-04T05:21:03;4.67;;;3.80;;
14358;SDS011;7263;49.418;11.064;2022-10-04T05:23:33;4.40;;;3.93;;
14358;SDS011;7263;49.418;11.064;2022-10-04T05:26:00;4.70;;;4.30;;
14358;SDS011;7263;49.418;11.064;2022-10-04T05:28:28;5.03;;;4.53;;
14358;SDS011;7263;49.418;11.064;2022-10-04T05:31:03;7.67;;;5.00;;
14358;SDS011;7263;49.418;11.064;2022-10-04T05:33:50;5.43;;;4.93;;
14358;SDS011;7263;49.418;11.064;2022-10-04T05:39:14;6.57;;;4.83;;
14358;SDS011;7263;49.418;11.064;2022-10-04T05:41:49;5.13;;;4.63;;
14358;SDS011;7263;49.418;11.064;2022-10-04T05:44:23;6.30;;;4.60;;
14358;SDS011;7263;49.418;11.064;2022-10-04T05:46:52;6.20;;;5.23;;
14358;SDS011;7263;49.418;11.064;2022-10-04T05:49:20;5.90;;;5.30;;
14358;SDS011;7263;49.418;11.064;2022-10-04T05:51:52;5.30;;;4.80;;
14358;SDS011;7263;49.418;11.064;2022-10-04T05:54:21;5.73;;;5.03;;
14358;SDS011;7263;49.418;11.064;2022-10-04T06:00:00;7.43;;;5.27;;
14358;SDS011;7263;49.418;11.064;2022-10-04T06:05:47;7.33;;;5.77;;
14358;SDS011;7263;49.418;11.064;2022-10-04T06:08:21;6.00;;;5.10;;
14358;SDS011;7263;49.418;11.064;2022-10-04T06:11:01;7.20;;;4.37;;
14358;SDS011;7263;49.418;11.064;2022-10-04T06:13:43;6.60;;;4.93;;
14358;SDS011;7263;49.418;11.064;2022-10-04T06:16:29;5.53;;;4.07;;
14358;SDS011;7263;49.418;11.064;2022-10-04T06:19:16;4.53;;;4.10;;
14358;SDS011;7263;49.418;11.064;2022-10-04T06:22:03;11.67;;;5.57;;
14358;SDS011;7263;49.418;11.064;2022-10-04T06:24:42;6.53;;;4.40;;
14358;SDS011;7263;49.418;11.064;2022-10-04T06:27:14;8.60;;;6.10;;
14358;SDS011;7263;49.418;11.064;2022-10-04T06:29:48;8.83;;;7.13;;
14358;SDS011;7263;49.418;11.064;2022-10-04T06:32:23;6.03;;;4.30;;
14358;SDS011;7263;49.418;11.064;2022-10-04T06:38:40;7.60;;;6.80;;
14358;SDS011;7263;49.418;11.064;2022-10-04T06:41:30;5.47;;;4.97;;
14358;SDS011;7263;49.418;11.064;2022-10-04T06:44:12;7.17;;;4.70;;
14358;SDS011;7263;49.418;11.064;2022-10-04T06:46:52;4.40;;;4.00;;
14358;SDS011;7263;49.418;11.064;2022-10-04T06:49:34;4.87;;;4.37;;
14358;SDS011;7263;49.418;11.064;2022-10-04T06:52:10;5.90;;;3.93;;
14358;SDS011;7263;49.418;11.064;2022-10-04T07:01:28;4.93;;;4.43;;
14358;SDS011;7263;49.418;11.064;2022-10-04T07:03:59;4.47;;;4.07;;
14358;SDS011;7263;49.418;11.064;2022-10-04T07:06:32;4.57;;;4.17;;
14358;SDS011;7263;49.418;11.064;2022-10-04T07:09:03;7.97;;;4.33;;
14358;SDS011;7263;49.418;11.064;2022-10-04T07:11:35;6.73;;;3.60;;
14358;SDS011;7263;49.418;11.064;2022-10-04T07:14:10;4.63;;;3.00;;
14358;SDS011;7263;49.418;11.064;2022-10-04T07:16:42;5.47;;;3.10;;
14358;SDS011;7263;49.418;11.064;2022-10-04T07:19:22;4.67;;;3.37;;
14358;SDS011;7263;49.418;11.064;2022-10-04T07:21:58;4.40;;;3.00;;
14358;SDS011;7263;49.418;11.064;2022-10-04T07:24:38;8.00;;;3.57;;
14358;SDS011;7263;49.418;11.064;2022-10-04T07:27:14;5.30;;;3.17;;
14358;SDS011;7263;49.418;11.064;2022-10-04T07:29:44;5.13;;;3.10;;
14358;SDS011;7263;49.418;11.064;2022-10-04T07:32:19;4.27;;;3.20;;
14358;SDS011;7263;49.418;11.064;2022-10-04T07:34:49;6.57;;;3.43;;
14358;SDS011;7263;49.418;11.064;2022-10-04T07:37:22;5.80;;;3.70;;
14358;SDS011;7263;49.418;11.064;2022-10-04T07:39:54;6.73;;;4.07;;
14358;SDS011;7263;49.418;11.064;2022-10-04T07:42:26;7.03;;;3.30;;
14358;SDS011;7263;49.418;11.064;2022-10-04T07:45:03;5.67;;;3.53;;
14358;SDS011;7263;49.418;11.064;2022-10-04T07:47:37;5.33;;;4.77;;
14358;SDS011;7263;49.418;11.064;2022-10-04T07:50:17;8.73;;;6.00;;
14358;SDS011;7263;49.418;11.064;2022-10-04T07:52:51;9.07;;;7.30;;
14358;SDS011;7263;49.418;11.064;2022-10-04T07:55:24;7.40;;;3.90;;
14358;SDS011;7263;49.418;11.064;2022-10-04T07:57:57;6.23;;;3.73;;
14358;SDS011;7263;49.418;11.064;2022-10-04T08:00:37;7.00;;;3.60;;
14358;SDS011;7263;49.418;11.064;2022-10-04T08:03:22;7.07;;;3.43;;
14358;SDS011;7263;49.418;11.064;2022-10-04T08:06:08;3.80;;;3.27;;
14358;SDS011;7263;49.418;11.064;2022-10-04T08:08:44;6.97;;;4.17;;
14358;SDS011;7263;49.418;11.064;2022-10-04T08:11:28;6.13;;;4.50;;
14358;SDS011;7263;49.418;11.064;2022-10-04T08:14:03;6.13;;;4.00;;
14358;SDS011;7263;49.418;11.064;2022-10-04T08:16:42;4.60;;;3.47;;
14358;SDS011;7263;49.418;11.064;2022-10-04T08:19:25;7.67;;;4.63;;
14358;SDS011;7263;49.418;11.064;2022-10-04T08:22:04;4.97;;;3.63;;
14358;SDS011;7263;49.418;11.064;2022-10-04T08:24:49;6.50;;;4.70;;
14358;SDS011;7263;49.418;11.064;2022-10-04T08:27:27;5.53;;;3.87;;
14358;SDS011;7263;49.418;11.064;2022-10-04T08:30:39;4.97;;;4.53;;
14358;SDS011;7263;49.418;11.064;2022-10-04T08:33:21;6.50;;;3.63;;
14358;SDS011;7263;49.418;11.064;2022-10-04T08:35:58;4.27;;;2.97;;
14358;SDS011;7263;49.418;11.064;2022-10-04T08:38:39;6.40;;;3.10;;
14358;SDS011;7263;49.418;11.064;2022-10-04T08:47:07;3.63;;;3.00;;
14358;SDS011;7263;49.418;11.064;2022-10-04T08:53:11;5.70;;;2.90;;
14358;SDS011;7263;49.418;11.064;2022-10-04T08:55:54;4.37;;;3.30;;
14358;SDS011;7263;49.418;11.064;2022-10-04T08:58:47;3.27;;;2.83;;
14358;SDS011;7263;49.418;11.064;2022-10-04T09:01:37;7.47;;;3.50;;
14358;SDS011;7263;49.418;11.064;2022-10-04T09:04:29;5.87;;;3.07;;
14358;SDS011;7263;49.418;11.064;2022-10-04T09:10:28;6.33;;;3.30;;
14358;SDS011;7263;49.418;11.064;2022-10-04T09:13:11;6.90;;;3.93;;
14358;SDS011;7263;49.418;11.064;2022-10-04T09:16:02;4.17;;;3.60;;
14358;SDS011;7263;49.418;11.064;2022-10-04T09:18:45;5.60;;;3.83;;
14358;SDS011;7263;49.418;11.064;2022-10-04T09:21:20;4.27;;;3.23;;
14358;SDS011;7263;49.418;11.064;2022-10-04T09:24:01;5.13;;;3.23;;
14358;SDS011;7263;49.418;11.064;2022-10-04T09:26:51;6.83;;;3.90;;
14358;SDS011;7263;49.418;11.064;2022-10-04T09:29:33;8.50;;;3.37;;
14358;SDS011;7263;49.418;11.064;2022-10-04T09:32:36;6.10;;;3.50;;
14358;SDS011;7263;49.418;11.064;2022-10-04T09:35:31;4.67;;;3.93;;
14358;SDS011;7263;49.418;11.064;2022-10-04T09:38:32;5.77;;;3.47;;
14358;SDS011;7263;49.418;11.064;2022-10-04T09:41:29;3.73;;;3.40;;
14358;SDS011;7263;49.418;11.064;2022-10-04T09:53:19;4.40;;;2.77;;
14358;SDS011;7263;49.418;11.064;2022-10-04T09:56:12;5.90;;;3.20;;
14358;SDS011;7263;49.418;11.064;2022-10-04T10:02:10;9.03;;;2.90;;
14358;SDS011;7263;49.418;11.064;2022-10-04T10:05:23;4.72;;;2.67;;
14358;SDS011;7263;49.418;11.064;2022-10-04T10:07:59;4.57;;;2.50;;
14358;SDS011;7263;49.418;11.064;2022-10-04T10:10:40;6.68;;;2.45;;
14358;SDS011;7263;49.418;11.064;2022-10-04T10:13:40;3.33;;;2.35;;
14358;SDS011;7263;49.418;11.064;2022-10-04T10:16:38;3.33;;;2.10;;
14358;SDS011;7263;49.418;11.064;2022-10-04T10:19:26;6.30;;;2.28;;
14358;SDS011;7263;49.418;11.064;2022-10-04T10:22:51;4.13;;;2.20;;
14358;SDS011;7263;49.418;11.064;2022-10-04T10:25:36;4.43;;;1.80;;
14358;SDS011;7263;49.418;11.064;2022-10-04T10:28:21;3.90;;;1.90;;
14358;SDS011;7263;49.418;11.064;2022-10-04T10:34:11;3.28;;;1.88;;
14358;SDS011;7263;49.418;11.064;2022-10-04T10:37:01;3.38;;;1.83;;
14358;SDS011;7263;49.418;11.064;2022-10-04T10:43:00;3.55;;;1.67;;
14358;SDS011;7263;49.418;11.064;2022-10-04T10:45:55;4.28;;;1.60;;
14358;SDS011;7263;49.418;11.064;2022-10-04T10:48:56;3.60;;;1.33;;
14358;SDS011;7263;49.418;11.064;2022-10-04T10:51:49;2.65;;;1.30;;
14358;SDS011;7263;49.418;11.064;2022-10-04T10:54:37;1.33;;;1.10;;
14358;SDS011;7263;49.418;11.064;2022-10-04T10:57:20;3.83;;;1.52;;
14358;SDS011;7263;49.418;11.064;2022-10-04T11:00:12;1.38;;;1.17;;
14358;SDS011;7263;49.418;11.064;2022-10-04T11:06:01;2.97;;;1.33;;
14358;SDS011;7263;49.418;11.064;2022-10-04T11:08:48;2.50;;;1.30;;
14358;SDS011;7263;49.418;11.064;2022-10-04T11:11:44;1.63;;;1.10;;
14358;SDS011;7263;49.418;11.064;2022-10-04T11:20:32;3.15;;;1.25;;
14358;SDS011;7263;49.418;11.064;2022-10-04T11:27:17;2.22;;;1.33;;
14358;SDS011;7263;49.418;11.064;2022-10-04T11:30:03;3.95;;;1.40;;
14358;SDS011;7263;49.418;11.064;2022-10-04T11:36:03;2.50;;;1.40;;
14358;SDS011;7263;49.418;11.064;2022-10-04T11:38:49;3.10;;;1.30;;
14358;SDS011;7263;49.418;11.064;2022-10-04T11:41:23;2.58;;;1.60;;
14358;SDS011;7263;49.418;11.064;2022-10-04T11:47:11;2.60;;;1.35;;
14358;SDS011;7263;49.418;11.064;2022-10-04T11:49:54;2.95;;;1.48;;
14358;SDS011;7263;49.418;11.064;2022-10-04T11:55:48;2.42;;;1.77;;
14358;SDS011;7263;49.418;11.064;2022-10-04T11:58:37;2.28;;;1.67;;
14358;SDS011;7263;49.418;11.064;2022-10-04T12:01:29;2.78;;;1.35;;
14358;SDS011;7263;49.418;11.064;2022-10-04T12:07:37;4.20;;;1.70;;
14358;SDS011;7263;49.418;11.064;2022-10-04T12:10:13;3.58;;;1.40;;
14358;SDS011;7263;49.418;11.064;2022-10-04T12:13:00;5.80;;;1.60;;
14358;SDS011;7263;49.418;11.064;2022-10-04T12:15:55;3.13;;;1.53;;
14358;SDS011;7263;49.418;11.064;2022-10-04T12:18:45;3.10;;;1.40;;
14358;SDS011;7263;49.418;11.064;2022-10-04T12:21:50;2.97;;;1.53;;
14358;SDS011;7263;49.418;11.064;2022-10-04T12:24:31;4.77;;;1.60;;
14358;SDS011;7263;49.418;11.064;2022-10-04T12:27:31;2.33;;;1.40;;
14358;SDS011;7263;49.418;11.064;2022-10-04T12:30:21;3.83;;;1.60;;
14358;SDS011;7263;49.418;11.064;2022-10-04T12:32:57;6.53;;;1.90;;
14358;SDS011;7263;49.418;11.064;2022-10-04T12:35:33;2.13;;;1.40;;
14358;SDS011;7263;49.418;11.064;2022-10-04T12:41:08;5.80;;;1.60;;
14358;SDS011;7263;49.418;11.064;2022-10-04T12:43:43;1.87;;;1.23;;
14358;SDS011;7263;49.418;11.064;2022-10-04T12:46:23;2.00;;;1.43;;
14358;SDS011;7263;49.418;11.064;2022-10-04T12:49:01;3.33;;;1.20;;
14358;SDS011;7263;49.418;11.064;2022-10-04T12:51:45;2.80;;;1.40;;
14358;SDS011;7263;49.418;11.064;2022-10-04T12:54:22;2.97;;;1.47;;
14358;SDS011;7263;49.418;11.064;2022-10-04T12:57:03;3.83;;;1.40;;
14358;SDS011;7263;49.418;11.064;2022-10-04T12:59:50;3.27;;;1.20;;
14358;SDS011;7263;49.418;11.064;2022-10-04T13:02:27;3.07;;;1.37;;
14358;SDS011;7263;49.418;11.064;2022-10-04T13:05:12;1.53;;;1.00;;
14358;SDS011;7263;49.418;11.064;2022-10-04T13:07:52;2.73;;;1.00;;
14358;SDS011;7263;49.418;11.064;2022-10-04T13:10:32;1.90;;;1.00;;
14358;SDS011;7263;49.418;11.064;2022-10-04T13:13:22;2.50;;;1.23;;
14358;SDS011;7263;49.418;11.064;2022-10-04T13:16:09;2.50;;;1.37;;
14358;SDS011;7263;49.418;11.064;2022-10-04T13:18:47;2.93;;;1.30;;
14358;SDS011;7263;49.418;11.064;2022-10-04T13:21:24;2.50;;;1.20;;
14358;SDS011;7263;49.418;11.064;2022-10-04T13:24:16;4.23;;;1.30;;
14358;SDS011;7263;49.418;11.064;2022-10-04T13:26:50;2.30;;;1.20;;
14358;SDS011;7263;49.418;11.064;2022-10-04T13:29:23;4.70;;;1.20;;
14358;SDS011;7263;49.418;11.064;2022-10-04T13:31:55;3.30;;;1.20;;
14358;SDS011;7263;49.418;11.064;2022-10-04T13:34:30;3.37;;;1.20;;
14358;SDS011;7263;49.418;11.064;2022-10-04T13:40:11;1.43;;;1.20;;
14358;SDS011;7263;49.418;11.064;2022-10-04T13:42:57;1.93;;;1.23;;
14358;SDS011;7263;49.418;11.064;2022-10-04T13:45:50;2.63;;;1.40;;
14358;SDS011;7263;49.418;11.064;2022-10-04T13:48:28;2.80;;;1.40;;
14358;SDS011;7263;49.418;11.064;2022-10-04T13:51:11;2.37;;;1.20;;
14358;SDS011;7263;49.418;11.064;2022-10-04T13:54:07;3.77;;;1.40;;
14358;SDS011;7263;49.418;11.064;2022-10-04T13:57:04;2.87;;;1.73;;
14358;SDS011;7263;49.418;11.064;2022-10-04T13:59:44;3.47;;;1.23;;
14358;SDS011;7263;49.418;11.064;2022-10-04T14:02:21;2.80;;;1.73;;
14358;SDS011;7263;49.418;11.064;2022-10-04T14:05:25;2.50;;;1.07;;
14358;SDS011;7263;49.418;11.064;2022-10-04T14:08:26;2.20;;;1.10;;
14358;SDS011;7263;49.418;11.064;2022-10-04T14:11:33;3.63;;;1.17;;
14358;SDS011;7263;49.418;11.064;2022-10-04T14:14:39;2.43;;;1.00;;
14358;SDS011;7263;49.418;11.064;2022-10-04T14:20:24;2.63;;;1.30;;
14358;SDS011;7263;49.418;11.064;2022-10-04T14:23:23;3.53;;;1.30;;
14358;SDS011;7263;49.418;11.064;2022-10-04T14:26:24;3.90;;;1.20;;
14358;SDS011;7263;49.418;11.064;2022-10-04T14:32:26;2.70;;;1.10;;
14358;SDS011;7263;49.418;11.064;2022-10-04T14:35:16;3.50;;;1.10;;
14358;SDS011;7263;49.418;11.064;2022-10-04T14:41:05;2.33;;;1.40;;
14358;SDS011;7263;49.418;11.064;2022-10-04T14:44:08;2.30;;;2.00;;
14358;SDS011;7263;49.418;11.064;2022-10-04T14:46:56;3.20;;;1.50;;
14358;SDS011;7263;49.418;11.064;2022-10-04T14:49:38;1.80;;;1.30;;
14358;SDS011;7263;49.418;11.064;2022-10-04T14:52:30;1.63;;;1.10;;
14358;SDS011;7263;49.418;11.064;2022-10-04T14:55:10;2.63;;;1.40;;
14358;SDS011;7263;49.418;11.064;2022-10-04T14:57:54;1.93;;;1.40;;
14358;SDS011;7263;49.418;11.064;2022-10-04T15:00:47;2.87;;;1.10;;
14358;SDS011;7263;49.418;11.064;2022-10-04T15:03:32;2.97;;;1.63;;
14358;SDS011;7263;49.418;11.064;2022-10-04T15:06:09;1.97;;;1.10;;
14358;SDS011;7263;49.418;11.064;2022-10-04T15:08:51;3.07;;;1.43;;
14358;SDS011;7263;49.418;11.064;2022-10-04T15:11:43;2.33;;;1.07;;
14358;SDS011;7263;49.418;11.064;2022-10-04T15:14:26;5.13;;;4.63;;
14358;SDS011;7263;49.418;11.064;2022-10-04T15:17:00;3.27;;;1.83;;
14358;SDS011;7263;49.418;11.064;2022-10-04T15:19:31;4.00;;;1.80;;
14358;SDS011;7263;49.418;11.064;2022-10-04T15:22:05;4.03;;;1.83;;
14358;SDS011;7263;49.418;11.064;2022-10-04T15:24:44;2.40;;;1.43;;
14358;SDS011;7263;49.418;11.064;2022-10-04T15:27:21;2.30;;;1.50;;
14358;SDS011;7263;49.418;11.064;2022-10-04T15:30:26;2.97;;;1.73;;
14358;SDS011;7263;49.418;11.064;2022-10-04T15:33:06;3.27;;;1.70;;
14358;SDS011;7263;49.418;11.064;2022-10-04T15:35:45;3.07;;;1.20;;
14358;SDS011;7263;49.418;11.064;2022-10-04T15:38:23;2.97;;;1.30;;
14358;SDS011;7263;49.418;11.064;2022-10-04T15:40:59;3.37;;;1.90;;
14358;SDS011;7263;49.418;11.064;2022-10-04T15:43:29;2.57;;;1.57;;
14358;SDS011;7263;49.418;11.064;2022-10-04T15:46:06;2.13;;;1.83;;
14358;SDS011;7263;49.418;11.064;2022-10-04T15:49:06;4.23;;;1.83;;
14358;SDS011;7263;49.418;11.064;2022-10-04T15:52:00;2.70;;;1.60;;
14358;SDS011;7263;49.418;11.064;2022-10-04T15:54:42;5.77;;;1.77;;
14358;SDS011;7263;49.418;11.064;2022-10-04T15:57:17;2.13;;;1.30;;
14358;SDS011;7263;49.418;11.064;2022-10-04T15:59:54;3.23;;;1.50;;
14358;SDS011;7263;49.418;11.064;2022-10-04T16:05:19;2.40;;;1.97;;
14358;SDS011;7263;49.418;11.064;2022-10-04T16:08:12;2.60;;;1.40;;
14358;SDS011;7263;49.418;11.064;2022-10-04T16:10:57;17.53;;;11.93;;
14358;SDS011;7263;49.418;11.064;2022-10-04T16:13:44;5.30;;;3.27;;
14358;SDS011;7263;49.418;11.064;2022-10-04T16:16:34;23.03;;;16.73;;
14358;SDS011;7263;49.418;11.064;2022-10-04T16:19:31;3.00;;;1.70;;
14358;SDS011;7263;49.418;11.064;2022-10-04T16:22:13;3.23;;;1.70;;
14358;SDS011;7263;49.418;11.064;2022-10-04T16:24:45;2.83;;;1.97;;
14358;SDS011;7263;49.418;11.064;2022-10-04T16:27:26;5.83;;;2.03;;
14358;SDS011;7263;49.418;11.064;2022-10-04T16:30:12;3.27;;;2.73;;
14358;SDS011;7263;49.418;11.064;2022-10-04T16:33:09;5.67;;;5.00;;
14358;SDS011;7263;49.418;11.064;2022-10-04T16:35:46;9.33;;;8.43;;
14358;SDS011;7263;49.418;11.064;2022-10-04T16:38:25;4.43;;;3.57;;
14358;SDS011;7263;49.418;11.064;2022-10-04T16:41:01;3.63;;;2.07;;
14358;SDS011;7263;49.418;11.064;2022-10-04T16:43:35;4.53;;;3.10;;
14358;SDS011;7263;49.418;11.064;2022-10-04T16:46:05;9.33;;;4.67;;
14358;SDS011;7263;49.418;11.064;2022-10-04T16:48:48;6.00;;;4.70;;
14358;SDS011;7263;49.418;11.064;2022-10-04T16:51:28;8.63;;;3.50;;
14358;SDS011;7263;49.418;11.064;2022-10-04T16:57:11;3.70;;;2.70;;
14358;SDS011;7263;49.418;11.064;2022-10-04T16:59:46;5.03;;;3.23;;
14358;SDS011;7263;49.418;11.064;2022-10-04T17:02:19;8.27;;;4.00;;
14358;SDS011;7263;49.418;11.064;2022-10-04T17:05:28;6.57;;;5.97;;
14358;SDS011;7263;49.418;11.064;2022-10-04T17:08:19;4.47;;;4.07;;
14358;SDS011;7263;49.418;11.064;2022-10-04T17:11:09;4.90;;;3.83;;
14358;SDS011;7263;49.418;11.064;2022-10-04T17:13:52;3.13;;;2.67;;
14358;SDS011;7263;49.418;11.064;2022-10-04T17:16:23;5.80;;;2.50;;
14358;SDS011;7263;49.418;11.064;2022-10-04T17:19:13;3.70;;;2.67;;
14358;SDS011;7263;49.418;11.064;2022-10-04T17:21:48;4.77;;;2.87;;
14358;SDS011;7263;49.418;11.064;2022-10-04T17:24:32;4.80;;;3.23;;
14358;SDS011;7263;49.418;11.064;2022-10-04T17:27:15;3.70;;;3.20;;
14358;SDS011;7263;49.418;11.064;2022-10-04T17:30:16;4.80;;;3.23;;
14358;SDS011;7263;49.418;11.064;2022-10-04T17:38:52;6.30;;;3.30;;
14358;SDS011;7263;49.418;11.064;2022-10-04T17:41:33;4.57;;;3.17;;
14358;SDS011;7263;49.418;11.064;2022-10-04T17:44:26;11.10;;;8.73;;
14358;SDS011;7263;49.418;11.064;2022-10-04T17:47:00;16.03;;;14.20;;
14358;SDS011;7263;49.418;11.064;2022-10-04T17:49:36;7.83;;;6.53;;